Time;durP1;ratioP1;P1;durP2;ratioP2;P2;SDS_P1;SDS_P2;PMS_P1;PMS_P2;Temp;Humidity;BMP_temperature;BMP_pressure;BME280_temperature;BME280_humidity;BME280_pressure;Samples;Min_cycle;Max_cycle;Signal;HPM_P1;HPM_P2
2023/03/24 00:00:00;;;;;;;;;;;;;;;20.21;38.92;95048.56;10469771;28;2038;-64
2023/03/24 00:05:02;;;;;;;;;;;;;;;20.22;38.85;95031.69;10481943;28;2095;-64
2023/03/24 00:10:05;;;;;;;;;;;;;;;20.20;38.94;95031.19;10490955;28;1979;-63
2023/03/24 00:15:06;;;;;;;;;;;;;;;20.20;38.81;95012.78;10482295;28;2006;-63
2023/03/24 00:20:13;;;;;;;;;;;;;;;20.20;38.92;95002.25;10492394;28;2012;-64
2023/03/24 00:25:14;;;;;;;;;;;;;;;20.18;39.03;94997.25;10458922;28;1913;-64
2023/03/24 00:30:15;;;;;;;;;;;;;;;20.17;38.88;94987.78;10453852;28;2066;-63
2023/03/24 00:35:17;;;;;;;;;;;;;;;20.16;39.00;94970.44;10441462;28;2136;-64
2023/03/24 00:40:18;;;;;;;;;;;;;;;20.17;38.91;94955.44;10471597;28;1976;-64
2023/03/24 00:45:33;;;;;;;;;;;;;;;20.17;38.76;94969.34;10489686;28;1953;-63
2023/03/24 00:50:34;;;;;;;;;;;;;;;20.15;38.67;94965.47;10480339;28;1975;-64
2023/03/24 00:55:36;;;;;;;;;;;;;;;20.14;38.82;94961.28;10483304;28;1992;-64
2023/03/24 01:00:41;;;;;;;;;;;;;;;20.14;38.69;94962.06;10463894;28;2070;-64
2023/03/24 01:05:46;;;;;;;;;;;;;;;20.13;38.74;94965.75;10477144;28;1932;-62
2023/03/24 01:10:51;;;;;;;;;;;;;;;20.14;38.68;94966.53;10482709;28;1932;-64
2023/03/24 01:15:53;;;;;;;;;;;;;;;20.13;38.78;94980.78;10454673;28;1991;-64
2023/03/24 01:20:54;;;;;;;;;;;;;;;20.13;38.74;94986.03;10438273;28;2101;-64
2023/03/24 01:26:05;;;;;;;;;;;;;;;20.13;38.55;94980.78;10480765;28;1985;-64
2023/03/24 01:31:07;;;;;;;;;;;;;;;20.11;38.62;94967.88;10477928;28;1977;-64
2023/03/24 01:36:08;;;;;;;;;;;;;;;20.10;38.62;94963.72;10480612;28;2091;-63
2023/03/24 01:41:09;;;;;;;;;;;;;;;20.10;38.54;94960.28;10475124;28;1976;-64
2023/03/24 01:46:13;;;;;;;;;;;;;;;20.10;38.54;94947.13;10487351;28;2168;-64
2023/03/24 01:51:16;;;;;;;;;;;;;;;20.09;38.60;94938.44;10483124;28;1902;-64
2023/03/24 01:56:17;;;;;;;;;;;;;;;20.08;38.70;94929.00;10487894;28;1713;-64
2023/03/24 02:01:18;;;;;;;;;;;;;;;20.08;38.42;94925.59;10463839;28;2899;-64
2023/03/24 02:06:19;;;;;;;;;;;;;;;20.08;38.70;94946.63;10478926;28;2021;-64
2023/03/24 02:11:19;;;;;;;;;;;;;;;20.06;38.56;94946.16;10478352;28;2007;-63
2023/03/24 02:16:26;;;;;;;;;;;;;;;20.07;38.81;94948.47;10464130;28;1983;-64
2023/03/24 02:21:45;;;;;;;;;;;;;;;20.07;38.67;94939.84;10473397;28;1968;-64
2023/03/24 02:27:06;;;;;;;;;;;;;;;20.07;38.49;94945.09;10476958;28;2064;-64
2023/03/24 02:32:35;;;;;;;;;;;;;;;20.06;38.44;94946.94;10452123;28;2064;-64
2023/03/24 02:37:52;;;;;;;;;;;;;;;20.06;38.63;94944.31;10484685;28;1983;-64
2023/03/24 02:43:07;;;;;;;;;;;;;;;20.05;38.35;94941.97;10479314;28;1956;-64
2023/03/24 02:48:15;;;;;;;;;;;;;;;20.04;38.51;94928.03;10455216;28;2005;-63
2023/03/24 02:53:45;;;;;;;;;;;;;;;20.05;38.42;94928.81;10456221;28;1967;-64
2023/03/24 02:58:46;;;;;;;;;;;;;;;20.04;38.45;94922.78;10436990;28;2183;-64
2023/03/24 03:03:50;;;;;;;;;;;;;;;20.04;38.42;94924.63;10470501;28;1944;-64
2023/03/24 03:08:52;;;;;;;;;;;;;;;20.04;38.62;94919.34;10461293;28;2326;-64
2023/03/24 03:14:00;;;;;;;;;;;;;;;20.04;38.45;94922.78;10479407;28;2000;-64
2023/03/24 03:19:16;;;;;;;;;;;;;;;20.03;38.59;94920.44;10465705;28;1964;-64
2023/03/24 03:24:18;;;;;;;;;;;;;;;20.04;38.65;94914.09;10466037;28;2142;-64
2023/03/24 03:29:22;;;;;;;;;;;;;;;20.03;38.38;94902.03;10459955;28;2031;-64
2023/03/24 03:34:23;;;;;;;;;;;;;;;20.02;38.46;94887.28;10464234;28;2066;-64
2023/03/24 03:39:28;;;;;;;;;;;;;;;20.02;38.49;94887.28;10476607;28;2139;-64
2023/03/24 03:44:29;;;;;;;;;;;;;;;20.01;38.45;94868.09;10477321;28;2013;-64
2023/03/24 03:49:30;;;;;;;;;;;;;;;20.01;38.34;94841.03;10443745;28;1948;-64
2023/03/24 03:54:33;;;;;;;;;;;;;;;20.00;38.46;94818.41;10477992;28;2032;-64
2023/03/24 03:59:34;;;;;;;;;;;;;;;20.00;38.45;94829.72;10475352;28;1947;-64
2023/03/24 04:04:56;;;;;;;;;;;;;;;20.00;38.55;94832.34;10486906;28;1913;-64
2023/03/24 04:09:57;;;;;;;;;;;;;;;20.00;38.57;94813.16;10459835;28;1976;-64
2023/03/24 04:15:17;;;;;;;;;;;;;;;20.00;38.64;94821.81;10478243;28;1943;-64
2023/03/24 04:20:21;;;;;;;;;;;;;;;19.99;38.55;94822.13;10458434;28;2086;-62
2023/03/24 04:25:24;;;;;;;;;;;;;;;19.99;38.39;94815.00;10479562;28;1968;-63
2023/03/24 04:30:39;;;;;;;;;;;;;;;19.98;38.42;94820.56;10480206;28;1936;-63
2023/03/24 04:35:42;;;;;;;;;;;;;;;19.99;38.33;94827.38;10461703;28;1984;-63
2023/03/24 04:40:43;;;;;;;;;;;;;;;19.98;38.37;94821.34;10444239;28;2137;-63
2023/03/24 04:45:48;;;;;;;;;;;;;;;19.98;38.29;94821.34;10459092;28;2020;-63
2023/03/24 04:50:55;;;;;;;;;;;;;;;19.98;38.42;94821.34;10471391;28;2132;-63
2023/03/24 04:55:56;;;;;;;;;;;;;;;19.97;38.35;94830.28;10480879;28;2100;-64
2023/03/24 05:00:57;;;;;;;;;;;;;;;19.97;38.22;94829.53;10472673;28;1964;-64
2023/03/24 05:05:58;;;;;;;;;;;;;;;19.96;38.26;94826.13;10483527;28;2094;-63
2023/03/24 05:10:58;;;;;;;;;;;;;;;19.99;38.29;94832.66;10477426;28;2117;-67
2023/03/24 05:15:59;;;;;;;;;;;;;;;20.02;38.30;94837.31;10480231;28;1961;-63
2023/03/24 05:21:00;;;;;;;;;;;;;;;20.05;38.24;94852.53;10475313;28;1984;-63
2023/03/24 05:26:00;;;;;;;;;;;;;;;20.09;38.42;94864.03;10463870;28;2219;-63
2023/03/24 05:31:01;;;;;;;;;;;;;;;20.15;38.39;94868.13;10471964;28;2081;-63
2023/03/24 05:36:05;;;;;;;;;;;;;;;20.20;38.13;94881.97;10469921;28;2059;-63
2023/03/24 05:41:06;;;;;;;;;;;;;;;20.25;38.02;94889.81;10472546;28;2021;-63
2023/03/24 05:46:07;;;;;;;;;;;;;;;20.32;38.06;94881.50;10473015;28;2118;-63
2023/03/24 05:51:07;;;;;;;;;;;;;;;20.40;37.87;94854.50;10480783;28;2029;-64
2023/03/24 05:56:11;;;;;;;;;;;;;;;20.47;37.81;94860.16;10468317;28;1964;-63
2023/03/24 06:01:11;;;;;;;;;;;;;;;20.54;37.76;94881.59;10476753;28;1885;-63
2023/03/24 06:06:15;;;;;;;;;;;;;;;20.58;37.73;94877.31;10481368;28;2001;-62
2023/03/24 06:11:15;;;;;;;;;;;;;;;20.65;37.51;94858.50;10479604;28;1972;-64
2023/03/24 06:16:17;;;;;;;;;;;;;;;20.67;37.71;94841.28;10457204;28;2057;-61
2023/03/24 06:21:18;;;;;;;;;;;;;;;20.73;37.64;94810.38;10478701;28;1957;-63
2023/03/24 06:26:18;;;;;;;;;;;;;;;20.76;37.54;94810.56;10463995;28;1988;-62
2023/03/24 06:31:20;;;;;;;;;;;;;;;20.79;37.41;94828.41;10497593;28;2028;-62
2023/03/24 06:36:22;;;;;;;;;;;;;;;20.83;37.54;94839.13;10479656;28;2020;-63
2023/03/24 06:41:22;;;;;;;;;;;;;;;20.87;37.21;94822.44;10462375;28;2332;-62
2023/03/24 06:46:22;;;;;;;;;;;;;;;20.90;37.57;94813.16;10451248;28;2088;-64
2023/03/24 06:51:23;;;;;;;;;;;;;;;20.91;37.44;94812.88;10462638;28;2147;-61
2023/03/24 06:56:23;;;;;;;;;;;;;;;20.93;37.49;94821.25;10481053;28;1964;-61
2023/03/24 07:01:24;;;;;;;;;;;;;;;20.92;37.85;94826.81;10471059;28;2006;-60
2023/03/24 07:06:24;;;;;;;;;;;;;;;20.98;38.15;94831.66;10471674;28;1973;-61
2023/03/24 07:11:25;;;;;;;;;;;;;;;21.00;37.90;94829.50;10479220;28;1976;-61
2023/03/24 07:16:25;;;;;;;;;;;;;;;21.10;38.03;94839.09;10471797;28;2137;-65
2023/03/24 07:21:25;;;;;;;;;;;;;;;21.22;37.78;94849.09;10470360;28;1968;-61
2023/03/24 07:26:26;;;;;;;;;;;;;;;21.33;37.77;94866.25;10477585;28;2059;-63
2023/03/24 07:31:27;;;;;;;;;;;;;;;21.41;37.52;94878.72;10483999;28;2052;-60
2023/03/24 07:36:27;;;;;;;;;;;;;;;21.52;37.32;94896.63;10475595;28;1948;-62
2023/03/24 07:41:28;;;;;;;;;;;;;;;21.57;36.96;94914.19;10472508;28;2089;-61
2023/03/24 07:46:30;;;;;;;;;;;;;;;21.65;36.71;94910.81;10473211;28;1927;-62
2023/03/24 07:51:31;;;;;;;;;;;;;;;21.68;36.84;94923.41;10474235;28;1991;-62
2023/03/24 07:56:32;;;;;;;;;;;;;;;21.75;36.69;94926.41;10475210;28;2020;-61
2023/03/24 08:01:35;;;;;;;;;;;;;;;21.81;36.54;94935.75;10472790;28;1948;-59
2023/03/24 08:06:35;;;;;;;;;;;;;;;21.83;36.46;94936.25;10478116;28;1980;-59
2023/03/24 08:11:36;;;;;;;;;;;;;;;21.88;36.39;94938.78;10467827;28;1964;-59
2023/03/24 08:16:39;;;;;;;;;;;;;;;21.90;36.33;94933.22;10468741;28;2107;-59
2023/03/24 08:21:40;;;;;;;;;;;;;;;21.92;36.06;94934.47;10467698;28;1928;-59
2023/03/24 08:26:41;;;;;;;;;;;;;;;21.91;35.97;94935.53;10468656;28;1937;-60
2023/03/24 08:31:43;;;;;;;;;;;;;;;21.90;36.17;94941.91;10475712;28;1944;-63
2023/03/24 08:36:44;;;;;;;;;;;;;;;21.94;36.04;94945.50;10474716;28;2012;-60
2023/03/24 08:41:45;;;;;;;;;;;;;;;21.93;36.01;94938.66;10474237;28;1996;-60
2023/03/24 08:46:45;;;;;;;;;;;;;;;21.96;36.17;94956.53;10465947;28;1941;-61
2023/03/24 08:51:46;;;;;;;;;;;;;;;21.97;36.00;94967.88;10474299;28;1944;-60
2023/03/24 08:56:46;;;;;;;;;;;;;;;21.94;35.75;94960.56;10469121;28;1963;-60
2023/03/24 09:01:48;;;;;;;;;;;;;;;21.95;36.08;94976.06;10470440;28;1999;-63
2023/03/24 09:06:48;;;;;;;;;;;;;;;21.94;35.76;94971.91;10466542;28;2039;-63
2023/03/24 09:11:49;;;;;;;;;;;;;;;21.92;35.85;94974.06;10466938;28;1948;-63
2023/03/24 09:16:50;;;;;;;;;;;;;;;21.92;36.14;94983.81;10460399;28;2054;-63
2023/03/24 09:21:50;;;;;;;;;;;;;;;21.88;35.70;94978.38;10463068;28;1983;-61
2023/03/24 09:26:50;;;;;;;;;;;;;;;21.91;35.53;94982.28;10467910;28;2004;-61
2023/03/24 09:31:52;;;;;;;;;;;;;;;21.90;35.68;94989.41;10472605;28;2256;-62
2023/03/24 09:36:53;;;;;;;;;;;;;;;21.89;35.65;94998.38;10480901;28;2037;-61
2023/03/24 09:41:53;;;;;;;;;;;;;;;21.88;35.66;95004.75;10475308;28;2023;-61
2023/03/24 09:47:15;;;;;;;;;;;;;;;21.85;35.73;95011.41;10469755;28;1972;-61
2023/03/24 09:52:18;;;;;;;;;;;;;;;21.87;35.54;95021.66;10474002;28;2076;-61
2023/03/24 09:57:27;;;;;;;;;;;;;;;21.84;36.05;95024.91;10473592;28;1948;-60
2023/03/24 10:02:30;;;;;;;;;;;;;;;21.85;35.65;95021.16;10469900;28;1970;-64
2023/03/24 10:07:37;;;;;;;;;;;;;;;21.85;35.72;95032.50;10463719;28;1965;-63
2023/03/24 10:12:38;;;;;;;;;;;;;;;21.86;35.46;95022.75;10472740;28;1957;-63
2023/03/24 10:17:53;;;;;;;;;;;;;;;21.84;35.71;95027.53;10471171;28;2105;-63
2023/03/24 10:23:01;;;;;;;;;;;;;;;21.83;35.82;95032.03;10477031;28;1980;-64
2023/03/24 10:28:08;;;;;;;;;;;;;;;21.84;35.67;95046.00;10474302;28;1968;-63
2023/03/24 10:33:10;;;;;;;;;;;;;;;21.83;35.47;95049.72;10461430;28;1924;-62
2023/03/24 10:38:19;;;;;;;;;;;;;;;21.83;35.73;95047.84;10454344;28;2024;-64
2023/03/24 10:43:22;;;;;;;;;;;;;;;21.84;35.34;95067.13;10471231;28;1936;-63
2023/03/24 10:48:40;;;;;;;;;;;;;;;21.82;35.48;95043.66;10475881;28;1953;-61
2023/03/24 10:53:42;;;;;;;;;;;;;;;21.82;35.18;95042.88;10480096;28;2047;-61
2023/03/24 10:58:43;;;;;;;;;;;;;;;21.81;35.21;95059.75;10462561;28;1961;-64
2023/03/24 11:03:50;;;;;;;;;;;;;;;21.77;35.52;95062.22;10464497;28;1991;-63
2023/03/24 11:09:15;;;;;;;;;;;;;;;21.78;35.38;95049.81;10489840;28;1963;-60
2023/03/24 11:14:26;;;;;;;;;;;;;;;21.78;35.19;95060.38;10458116;28;2007;-64
2023/03/24 11:19:27;;;;;;;;;;;;;;;21.78;35.17;95050.56;10455445;28;1935;-63
2023/03/24 11:24:28;;;;;;;;;;;;;;;21.76;35.72;95058.00;10470615;28;1964;-65
2023/03/24 11:29:29;;;;;;;;;;;;;;;21.77;35.22;95049.03;10468448;28;1972;-64
2023/03/24 11:34:33;;;;;;;;;;;;;;;21.77;35.23;95029.78;10456790;28;1947;-64
2023/03/24 11:39:34;;;;;;;;;;;;;;;21.75;35.17;95014.25;10459834;28;2010;-62
2023/03/24 11:44:37;;;;;;;;;;;;;;;21.77;35.46;94998.13;10460856;28;1977;-62
2023/03/24 11:49:39;;;;;;;;;;;;;;;21.77;35.28;94987.56;10472898;28;2001;-62
2023/03/24 11:54:40;;;;;;;;;;;;;;;21.65;36.15;94982.03;10472723;28;1973;-63
2023/03/24 11:59:47;;;;;;;;;;;;;;;21.54;36.10;94989.41;10465682;28;2094;-62
2023/03/24 12:04:58;;;;;;;;;;;;;;;21.48;35.85;94974.75;10460863;28;1971;-62
2023/03/24 12:10:26;;;;;;;;;;;;;;;21.37;36.25;94960.22;10475831;28;1945;-62
2023/03/24 12:15:31;;;;;;;;;;;;;;;21.28;36.72;94946.22;10486631;28;2102;-62
2023/03/24 12:20:34;;;;;;;;;;;;;;;21.21;36.63;94943.19;10447198;28;2030;-62
2023/03/24 12:25:34;;;;;;;;;;;;;;;21.14;37.19;94942.03;10479208;28;2008;-62
2023/03/24 12:30:48;;;;;;;;;;;;;;;21.07;37.11;94947.72;10471090;28;1967;-62
2023/03/24 12:36:00;;;;;;;;;;;;;;;21.02;36.99;94945.97;10479094;28;2170;-62
2023/03/24 12:41:17;;;;;;;;;;;;;;;20.96;37.67;94954.22;10480807;28;1943;-62
2023/03/24 12:46:36;;;;;;;;;;;;;;;20.91;37.77;94963.03;10474087;28;2063;-63
2023/03/24 12:51:51;;;;;;;;;;;;;;;20.87;37.75;94959.44;10474994;28;2043;-63
2023/03/24 12:56:59;;;;;;;;;;;;;;;20.82;37.84;94967.41;10464683;28;1988;-62
2023/03/24 13:02:03;;;;;;;;;;;;;;;20.78;37.91;94966.44;10477190;28;2049;-62
2023/03/24 13:07:06;;;;;;;;;;;;;;;20.74;37.79;94957.56;10478951;28;2128;-64
2023/03/24 13:12:09;;;;;;;;;;;;;;;20.72;37.89;94972.88;10480861;28;1984;-63
2023/03/24 13:17:12;;;;;;;;;;;;;;;20.70;37.97;94975.03;10463018;28;1987;-62
2023/03/24 13:22:14;;;;;;;;;;;;;;;20.68;38.10;94957.94;10462336;28;1909;-62
2023/03/24 13:27:22;;;;;;;;;;;;;;;20.65;37.98;94935.63;10459218;28;2023;-62
2023/03/24 13:32:43;;;;;;;;;;;;;;;20.63;38.00;94929.84;10458426;28;1948;-63
2023/03/24 13:37:51;;;;;;;;;;;;;;;20.61;38.07;94933.88;10453099;28;1987;-63
2023/03/24 13:43:00;;;;;;;;;;;;;;;20.60;38.10;94919.13;10455194;28;2115;-62
2023/03/24 13:48:05;;;;;;;;;;;;;;;20.57;38.10;94909.97;10472395;28;1971;-62
2023/03/24 13:53:06;;;;;;;;;;;;;;;20.56;38.08;94916.31;10477760;28;1889;-62
2023/03/24 13:58:20;;;;;;;;;;;;;;;20.55;38.23;94916.59;10460390;28;1983;-62
2023/03/24 14:03:30;;;;;;;;;;;;;;;20.54;38.22;94883.47;10473097;28;1941;-63
2023/03/24 14:08:40;;;;;;;;;;;;;;;20.52;38.19;94872.44;10459515;28;2079;-62
2023/03/24 14:13:46;;;;;;;;;;;;;;;20.51;38.21;94874.28;10477406;28;2004;-63
2023/03/24 14:18:47;;;;;;;;;;;;;;;20.50;38.25;94874.59;10478885;28;2188;-62
2023/03/24 14:23:52;;;;;;;;;;;;;;;20.49;38.43;94876.44;10473506;28;2044;-62
2023/03/24 14:28:52;;;;;;;;;;;;;;;20.48;38.14;94866.19;10454374;28;1983;-62
2023/03/24 14:34:09;;;;;;;;;;;;;;;20.46;38.22;94870.97;10476314;28;2063;-62
2023/03/24 14:39:25;;;;;;;;;;;;;;;20.45;38.28;94862.28;10467855;28;2021;-62
2023/03/24 14:44:54;;;;;;;;;;;;;;;20.43;38.39;94829.44;10468540;28;2057;-62
2023/03/24 14:49:55;;;;;;;;;;;;;;;20.43;38.04;94838.13;10454336;28;2021;-62
2023/03/24 14:54:57;;;;;;;;;;;;;;;20.43;38.23;94846.00;10464772;28;1992;-63
2023/03/24 15:00:13;;;;;;;;;;;;;;;20.42;38.24;94851.59;10465283;28;2115;-62
2023/03/24 15:05:17;;;;;;;;;;;;;;;20.40;38.43;94878.22;10483660;28;1925;-62
2023/03/24 15:10:46;;;;;;;;;;;;;;;20.39;38.27;94873.22;10488084;28;2076;-62
2023/03/24 15:15:47;;;;;;;;;;;;;;;20.37;38.45;94870.88;10486416;28;2012;-62
2023/03/24 15:20:48;;;;;;;;;;;;;;;20.38;38.14;94876.94;10487292;28;2072;-63
2023/03/24 15:25:50;;;;;;;;;;;;;;;20.37;38.43;94886.66;10487487;28;1950;-63
2023/03/24 15:30:50;;;;;;;;;;;;;;;20.33;38.42;94885.69;10475555;28;2003;-63
2023/03/24 15:35:55;;;;;;;;;;;;;;;20.34;38.44;94884.63;10481969;28;1969;-62
2023/03/24 15:40:59;;;;;;;;;;;;;;;20.33;38.45;94890.19;10488920;28;1951;-62
2023/03/24 15:46:01;;;;;;;;;;;;;;;20.33;38.45;94909.38;10483422;28;2060;-63
2023/03/24 15:51:02;;;;;;;;;;;;;;;20.32;38.40;94920.97;10471093;28;1970;-63
2023/03/24 15:56:04;;;;;;;;;;;;;;;20.31;38.21;94931.78;10468442;28;1940;-63
2023/03/24 16:01:08;;;;;;;;;;;;;;;20.31;38.48;94934.44;10477170;28;2119;-63
2023/03/24 16:06:13;;;;;;;;;;;;;;;20.29;38.20;94945.25;10468428;28;2013;-62
2023/03/24 16:11:13;;;;;;;;;;;;;;;20.27;38.29;94961.34;10457387;28;2030;-62
2023/03/24 16:16:15;;;;;;;;;;;;;;;20.27;38.09;94961.34;10471342;28;1960;-62
2023/03/24 16:21:19;;;;;;;;;;;;;;;20.27;38.42;94961.34;10478892;28;2169;-63
2023/03/24 16:26:25;;;;;;;;;;;;;;;20.26;38.19;94964.25;10460005;28;1952;-63
2023/03/24 16:31:29;;;;;;;;;;;;;;;20.25;38.36;94974.00;10482416;28;1976;-63
2023/03/24 16:36:30;;;;;;;;;;;;;;;20.24;38.18;94954.00;10459154;28;2083;-62
2023/03/24 16:41:31;;;;;;;;;;;;;;;20.24;38.29;94950.59;10482254;28;1948;-63
2023/03/24 16:46:33;;;;;;;;;;;;;;;20.24;38.21;94924.28;10474971;28;1964;-63
2023/03/24 16:51:34;;;;;;;;;;;;;;;20.23;38.27;94949.84;10478208;28;1984;-62
2023/03/24 16:56:34;;;;;;;;;;;;;;;20.22;38.37;94936.94;10462314;28;2047;-63
2023/03/24 17:01:39;;;;;;;;;;;;;;;20.21;38.24;94899.34;10481766;28;1975;-63
2023/03/24 17:06:40;;;;;;;;;;;;;;;20.23;37.87;94896.41;10479918;28;2081;-62
2023/03/24 17:11:45;;;;;;;;;;;;;;;20.21;38.25;94924.88;10469393;28;2012;-63
2023/03/24 17:16:45;;;;;;;;;;;;;;;20.19;38.08;94948.84;10444848;28;2056;-63
2023/03/24 17:21:48;;;;;;;;;;;;;;;20.19;38.06;94954.13;10479053;28;1957;-63
2023/03/24 17:26:48;;;;;;;;;;;;;;;20.18;38.30;94955.16;10481151;28;1966;-62
2023/03/24 17:31:48;;;;;;;;;;;;;;;20.18;37.94;94943.84;10472666;28;2061;-63
2023/03/24 17:36:50;;;;;;;;;;;;;;;20.17;38.22;94955.44;10472889;28;2079;-63
2023/03/24 17:41:51;;;;;;;;;;;;;;;20.17;38.19;94952.81;10476322;28;2095;-62
2023/03/24 17:46:51;;;;;;;;;;;;;;;20.15;38.10;94931.28;10455169;28;2143;-63
2023/03/24 17:51:53;;;;;;;;;;;;;;;20.16;38.00;94927.56;10478852;28;2015;-63
2023/03/24 17:56:54;;;;;;;;;;;;;;;20.14;38.12;94935.75;10480463;28;2103;-63
2023/03/24 18:01:55;;;;;;;;;;;;;;;20.14;38.13;94941.00;10478508;28;2044;-61
2023/03/24 18:06:56;;;;;;;;;;;;;;;20.13;37.84;94934.16;10460829;28;2308;-63
2023/03/24 18:11:57;;;;;;;;;;;;;;;20.14;37.85;94961.28;10474712;28;1965;-63
2023/03/24 18:16:57;;;;;;;;;;;;;;;20.13;38.03;94970.25;10468418;28;2033;-63
2023/03/24 18:21:58;;;;;;;;;;;;;;;20.10;38.01;94965.56;10473463;28;1900;-63
2023/03/24 18:26:58;;;;;;;;;;;;;;;20.11;37.79;94952.09;10487443;28;1968;-62
2023/03/24 18:31:58;;;;;;;;;;;;;;;20.09;38.02;94964.00;10480637;28;1955;-63
2023/03/24 18:37:01;;;;;;;;;;;;;;;20.10;37.63;94983.97;10487143;28;1989;-63
2023/03/24 18:42:02;;;;;;;;;;;;;;;20.08;37.78;94967.69;10487321;28;2040;-62
2023/03/24 18:47:03;;;;;;;;;;;;;;;20.08;37.69;94970.31;10486045;28;2031;-63
2023/03/24 18:52:03;;;;;;;;;;;;;;;20.09;37.88;94953.47;10485433;28;1932;-63
2023/03/24 18:57:03;;;;;;;;;;;;;;;20.08;37.66;94983.47;10489601;28;2004;-62
2023/03/24 19:02:04;;;;;;;;;;;;;;;20.08;37.73;94983.47;10479244;28;1985;-63
2023/03/24 19:07:07;;;;;;;;;;;;;;;20.07;37.73;94990.56;10490095;28;2036;-63
2023/03/24 19:12:07;;;;;;;;;;;;;;;20.07;37.80;95018.75;10487315;28;2010;-63
2023/03/24 19:17:08;;;;;;;;;;;;;;;20.07;37.59;95029.28;10486750;28;2128;-62
2023/03/24 19:22:09;;;;;;;;;;;;;;;20.06;37.78;95027.72;10477904;28;2020;-62
2023/03/24 19:27:10;;;;;;;;;;;;;;;20.05;37.68;95040.06;10468782;28;2159;-63
2023/03/24 19:32:10;;;;;;;;;;;;;;;20.05;37.73;95042.69;10482209;28;1981;-63
2023/03/24 19:37:12;;;;;;;;;;;;;;;20.04;37.82;95045.63;10467731;28;1984;-63
2023/03/24 19:42:13;;;;;;;;;;;;;;;20.05;37.94;95063.00;10455784;28;1997;-63
2023/03/24 19:47:14;;;;;;;;;;;;;;;20.03;37.80;95073.03;10477580;28;2079;-62
2023/03/24 19:52:15;;;;;;;;;;;;;;;20.03;38.08;95067.75;10476716;28;1995;-62
2023/03/24 19:57:16;;;;;;;;;;;;;;;20.03;37.45;95065.88;10485554;28;1960;-63
2023/03/24 20:02:16;;;;;;;;;;;;;;;20.03;37.64;95065.13;10474832;28;2131;-63
2023/03/24 20:07:16;;;;;;;;;;;;;;;20.00;37.60;95070.94;10459018;28;1976;-63
2023/03/24 20:12:17;;;;;;;;;;;;;;;20.00;37.62;95068.31;10464032;28;1980;-63
2023/03/24 20:17:18;;;;;;;;;;;;;;;20.00;37.66;95052.53;10479270;28;2065;-62
2023/03/24 20:22:18;;;;;;;;;;;;;;;19.99;37.52;95050.97;10449249;28;2205;-62
2023/03/24 20:27:18;;;;;;;;;;;;;;;19.97;37.55;95021.56;10485963;28;1973;-62
2023/03/24 20:32:19;;;;;;;;;;;;;;;19.97;37.63;95037.34;10481417;28;2030;-62
2023/03/24 20:37:19;;;;;;;;;;;;;;;19.96;37.48;95033.13;10459291;28;2087;-62
2023/03/24 20:42:23;;;;;;;;;;;;;;;19.96;37.51;95019.97;10485345;28;1972;-63
2023/03/24 20:47:25;;;;;;;;;;;;;;;19.95;37.39;95016.56;10466482;28;2021;-63
2023/03/24 20:52:26;;;;;;;;;;;;;;;19.95;37.53;94994.72;10477439;28;2335;-62
2023/03/24 20:57:29;;;;;;;;;;;;;;;19.95;37.22;95008.66;10497958;28;2056;-62
2023/03/24 21:02:30;;;;;;;;;;;;;;;19.94;37.14;95003.69;10468303;28;1992;-62
2023/03/24 21:07:31;;;;;;;;;;;;;;;19.94;37.44;94998.44;10465319;28;2081;-63
2023/03/24 21:12:41;;;;;;;;;;;;;;;19.92;37.16;95005.84;10479642;28;1916;-62
2023/03/24 21:17:42;;;;;;;;;;;;;;;19.92;37.33;95011.88;10480284;28;2004;-63
2023/03/24 21:22:52;;;;;;;;;;;;;;;19.91;37.24;95002.41;10478579;28;1974;-62
2023/03/24 21:27:53;;;;;;;;;;;;;;;19.91;37.36;95017.41;10471712;28;2047;-63
2023/03/24 21:32:53;;;;;;;;;;;;;;;19.91;37.28;95025.31;10474265;28;2017;-62
2023/03/24 21:37:54;;;;;;;;;;;;;;;19.90;37.31;95023.75;10482250;28;2098;-63
2023/03/24 21:43:03;;;;;;;;;;;;;;;19.89;37.13;95030.06;10476291;28;1976;-62
2023/03/24 21:48:04;;;;;;;;;;;;;;;19.89;36.93;95038.75;10479188;28;2038;-62
2023/03/24 21:53:13;;;;;;;;;;;;;;;19.87;37.17;95045.34;10476943;28;1959;-62
2023/03/24 21:58:14;;;;;;;;;;;;;;;19.87;37.44;95056.66;10481742;28;2034;-62
2023/03/24 22:03:15;;;;;;;;;;;;;;;19.86;37.26;95059.59;10489916;28;1964;-62
2023/03/24 22:08:21;;;;;;;;;;;;;;;19.86;37.20;95064.84;10468587;28;2075;-62
2023/03/24 22:13:23;;;;;;;;;;;;;;;19.86;37.24;95068.25;10460075;28;2000;-62
2023/03/24 22:18:25;;;;;;;;;;;;;;;19.85;37.08;95073.78;10489305;28;1960;-62
2023/03/24 22:23:28;;;;;;;;;;;;;;;19.83;37.28;95079.34;10486425;28;2036;-62
2023/03/24 22:28:30;;;;;;;;;;;;;;;19.82;37.25;95075.16;10479864;28;1952;-62
2023/03/24 22:33:30;;;;;;;;;;;;;;;19.83;37.28;95084.59;10479062;28;1960;-62
2023/03/24 22:38:33;;;;;;;;;;;;;;;19.82;37.03;95090.94;10463526;28;1915;-63
2023/03/24 22:43:34;;;;;;;;;;;;;;;19.83;36.93;95089.06;10488216;28;1946;-61
2023/03/24 22:48:34;;;;;;;;;;;;;;;19.83;36.78;95099.59;10483573;28;2004;-62
2023/03/24 22:53:35;;;;;;;;;;;;;;;19.80;37.12;95095.69;10479421;28;1981;-62
2023/03/24 22:58:35;;;;;;;;;;;;;;;19.81;37.03;95099.09;10470891;28;2007;-63
2023/03/24 23:03:35;;;;;;;;;;;;;;;19.80;37.04;95092.28;10477157;28;2037;-63
2023/03/24 23:08:39;;;;;;;;;;;;;;;19.79;36.78;95101.22;10481644;28;2052;-62
2023/03/24 23:13:39;;;;;;;;;;;;;;;19.78;37.09;95103.09;10502293;28;2067;-62
2023/03/24 23:18:39;;;;;;;;;;;;;;;19.77;36.89;95116.50;10477843;28;1991;-63
2023/03/24 23:23:40;;;;;;;;;;;;;;;19.77;36.93;95119.13;10481606;28;2067;-62
2023/03/24 23:28:40;;;;;;;;;;;;;;;19.76;36.67;95115.75;10479415;28;2005;-63
2023/03/24 23:33:41;;;;;;;;;;;;;;;19.76;36.75;95107.06;10478375;28;2033;-62
2023/03/24 23:38:49;;;;;;;;;;;;;;;19.75;36.56;95122.06;10467558;28;1925;-62
2023/03/24 23:43:50;;;;;;;;;;;;;;;19.75;36.75;95129.16;10479397;28;2016;-62
2023/03/24 23:48:52;;;;;;;;;;;;;;;19.75;36.70;95137.03;10474125;28;1983;-62
2023/03/24 23:53:53;;;;;;;;;;;;;;;19.74;36.80;95124.97;10481961;28;2027;-63
2023/03/24 23:58:53;;;;;;;;;;;;;;;19.73;36.77;95131.28;10478397;28;2014;-63
